Aérodrome :
LOGIN :

S'inscrire | Disclaimer

   EN    FR    IT 

 










Légende :    VFR   VFR Marginal   IFR   IFR Intensif   IFR Très Intensif
Visi : 
Plafond : 
>= 8 km
>= 3000ft
5 à 8 km
1000 à 3000 ft
1500m à 5 km
500 à 1000 ft
800 à 1500m
200 à 500 ft
< 800m
< 200 ft
Symboles :   Orages  Brouillard  Fortes neiges  Fortes précipitations  Vent > 20 kt
SIGMETs :   Divers  Orages  Givrage  Turbulence  Onde Orograph.  Cendres Volcan.






- Altitude de l'aérodrome : 778 ft
- Code IATA : BRQ


LKTB - Brno-Turany

DERNIER METAR :
  • 160700Z VRB01KT 8000 FEW009 02/02 Q1016 R27/39//93 TEMPO BKN008

METARs EXPIRÉS :
  • 160630Z VRB01KT 9000 FEW010 01/01 Q1016 R27/29//95 NOSIG
  • 160600Z VRB02KT 9999 FEW012 02/01 Q1016 R27/29//95 NOSIG
  • 160530Z VRB02KT CAVOK 02/01 Q1016 R27/29//95 NOSIG
  • 160500Z VRB02KT CAVOK 02/01 Q1016 R27/29//95 NOSIG
  • 160430Z 00000KT CAVOK 01/00 Q1016 R27/29//95 NOSIG

TAF TAF LKTB
Valide du 16 à 06h jusqu'au 17 à 12h UTC


160500Z 1606/1712 VRB02KT CAVOK
BECMG 1607/1610 6000 OVC007
TEMPO 1610/1616 9999 BKN012
BECMG 1611/1613 14004KT
BECMG 1616/1618 1800 BR OVC004
BECMG 1619/1621 0700 FG OVC002
TEMPO 1621/1708 0300 FG VV001
BECMG 1708/1710 3000 BR OVC005



MET'MAP, la Météo Aéronautique d'un coup d'oeil ! - Copyright ORBIFLY Décembre 2007 - Disclaimer

ORBIFLY MET'MAP TEAM :

Programmation & Développement : Alexandra Zaïnal
Sur une idée originale de : Baudouin d'Aumeries
Assistance à la programmation : Marc-Olivier Méhu
Soutien technique & logistique : Manuel Goepfert

Contact : metmap@orbifly.com




SOURCES & CREDITS :

   NOAA